Time;durP1;ratioP1;P1;durP2;ratioP2;P2;SDS_P1;SDS_P2;PMS_P1;PMS_P2;Temp;Humidity;BMP_temperature;BMP_pressure;BME280_temperature;BME280_humidity;BME280_pressure;Samples;Min_cycle;Max_cycle;Signal;HPM_P1;HPM_P2
2022/11/24 00:01:42;;;;;;;26.83;6.78;;;;;;;7.41;97.22;100178.06;5087575;28;20038;-60
2022/11/24 00:04:10;;;;;;;19.35;6.90;;;;;;;7.43;97.34;100177.03;5092029;28;20104;-60
2022/11/24 00:06:36;;;;;;;25.10;6.85;;;;;;;7.37;97.04;100177.41;5092035;28;20113;-60
2022/11/24 00:09:03;;;;;;;25.15;7.15;;;;;;;7.36;97.06;100177.50;5092480;28;20055;-60
2022/11/24 00:11:31;;;;;;;23.38;6.55;;;;;;;7.40;96.45;100174.56;5091211;28;20032;-60
2022/11/24 00:13:57;;;;;;;20.77;6.38;;;;;;;7.40;96.36;100186.94;5109745;28;20390;-61
2022/11/24 00:16:28;;;;;;;21.75;7.25;;;;;;;7.43;96.04;100192.91;5110861;28;20028;-60
2022/11/24 00:18:56;;;;;;;22.10;6.93;;;;;;;7.37;96.16;100187.13;5112074;28;20379;-60
2022/11/24 00:21:24;;;;;;;23.20;7.07;;;;;;;7.40;96.03;100195.72;5104782;28;20039;-60
2022/11/24 00:23:51;;;;;;;22.80;7.00;;;;;;;7.39;95.94;100191.41;5093691;28;20036;-60
2022/11/24 00:26:21;;;;;;;25.45;7.07;;;;;;;7.39;96.17;100199.34;5092971;28;20059;-60
2022/11/24 00:28:49;;;;;;;22.55;6.72;;;;;;;7.33;96.16;100193.56;5091443;28;20035;-60
2022/11/24 00:31:23;;;;;;;23.35;6.57;;;;;;;7.39;96.05;100198.50;5125409;27;20034;-60
2022/11/24 00:33:51;;;;;;;21.38;6.53;;;;;;;7.39;95.96;100209.06;5125905;27;20054;-60
2022/11/24 00:36:19;;;;;;;24.92;6.45;;;;;;;7.36;95.85;100210.09;5080493;28;20029;-60
2022/11/24 00:38:45;;;;;;;21.73;6.55;;;;;;;7.33;95.88;100196.22;5077983;28;20077;-60
2022/11/24 00:41:11;;;;;;;26.33;6.93;;;;;;;7.31;95.90;100198.94;5093041;28;20031;-60
2022/11/24 00:43:36;;;;;;;16.15;6.25;;;;;;;7.32;95.71;100191.84;5092574;28;20425;-60
2022/11/24 00:46:02;;;;;;;25.48;6.35;;;;;;;7.30;95.91;100199.03;5090282;28;20487;-60
2022/11/24 00:48:27;;;;;;;22.55;6.43;;;;;;;7.35;95.60;100203.09;5124361;28;20491;-60
2022/11/24 00:51:01;;;;;;;19.00;6.32;;;;;;;7.33;95.79;100207.63;5092361;28;20066;-60
2022/11/24 00:53:29;;;;;;;19.98;6.18;;;;;;;7.33;95.47;100209.44;5091782;28;20058;-60
2022/11/24 00:55:57;;;;;;;20.83;6.20;;;;;;;7.33;95.60;100204.16;5089620;28;20043;-60
2022/11/24 00:58:26;;;;;;;17.75;6.45;;;;;;;7.32;95.89;100210.38;5091315;28;20507;-60
2022/11/24 01:00:52;;;;;;;20.95;5.78;;;;;;;7.35;95.41;100212.81;5105401;28;20394;-60
2022/11/24 01:03:19;;;;;;;21.33;5.93;;;;;;;7.33;95.10;100212.94;5111724;28;20030;-60
2022/11/24 01:05:45;;;;;;;19.67;6.53;;;;;;;7.28;95.27;100217.63;5109960;28;20040;-60
2022/11/24 01:08:11;;;;;;;20.40;6.30;;;;;;;7.27;95.27;100216.78;5095802;28;20430;-60
2022/11/24 01:10:36;;;;;;;20.83;6.65;;;;;;;7.31;95.46;100229.84;5089648;28;20491;-60
2022/11/24 01:13:03;;;;;;;22.17;6.25;;;;;;;7.32;95.50;100223.59;5091239;28;20070;-60
2022/11/24 01:15:29;;;;;;;23.35;6.53;;;;;;;7.31;95.20;100228.03;5089879;28;20041;-60
2022/11/24 01:17:55;;;;;;;24.40;6.55;;;;;;;7.27;95.41;100229.16;5095388;28;20063;-60
2022/11/24 01:20:21;;;;;;;20.42;6.82;;;;;;;7.27;95.21;100234.47;5091013;28;20020;-61
2022/11/24 01:22:48;;;;;;;20.35;6.30;;;;;;;7.26;95.37;100238.91;5090939;28;20032;-60
2022/11/24 01:25:13;;;;;;;25.88;6.35;;;;;;;7.24;95.40;100235.50;5091456;28;20024;-60
2022/11/24 01:27:39;;;;;;;20.48;6.68;;;;;;;7.30;95.03;100233.44;5095669;28;20363;-60
2022/11/24 01:30:05;;;;;;;23.15;6.75;;;;;;;7.25;95.17;100241.63;5102090;28;20028;-60
2022/11/24 01:32:37;;;;;;;25.40;6.72;;;;;;;7.27;95.18;100226.53;5090825;28;20031;-60
2022/11/24 01:35:03;;;;;;;16.73;5.78;;;;;;;7.21;95.22;100238.31;5097248;28;20056;-60
2022/11/24 01:37:28;;;;;;;17.63;5.72;;;;;;;7.19;95.63;100247.28;5100211;28;20019;-60
2022/11/24 01:39:53;;;;;;;22.50;6.22;;;;;;;7.17;95.49;100247.34;5105958;28;20039;-60
2022/11/24 01:42:19;;;;;;;23.48;6.22;;;;;;;7.14;95.68;100242.25;5094223;28;20482;-60
2022/11/24 01:44:44;;;;;;;23.60;6.82;;;;;;;7.12;95.56;100254.72;5093075;28;20516;-60
2022/11/24 01:47:13;;;;;;;21.50;6.38;;;;;;;7.15;95.60;100245.75;5096190;28;20099;-60
2022/11/24 01:49:41;;;;;;;26.83;6.50;;;;;;;7.14;95.81;100246.69;5096291;28;20062;-60
2022/11/24 01:52:17;;;;;;;21.30;6.35;;;;;;;7.12;95.58;100251.22;5093901;28;20069;-60
2022/11/24 01:54:59;;;;;;;23.02;6.38;;;;;;;7.18;95.39;100259.66;5093575;28;20047;-60
2022/11/24 01:57:28;;;;;;;24.63;7.38;;;;;;;7.18;95.14;100262.31;5090165;28;20024;-60
2022/11/24 02:00:00;;;;;;;21.05;7.28;;;;;;;7.14;95.59;100260.75;5097377;28;20383;-60
2022/11/24 02:02:29;;;;;;;26.63;6.45;;;;;;;7.15;95.36;100265.13;5094308;28;20024;-60
2022/11/24 02:04:59;;;;;;;23.08;6.32;;;;;;;7.15;95.69;100266.94;5093670;28;20094;-60
2022/11/24 02:07:25;;;;;;;27.65;7.50;;;;;;;7.15;95.44;100264.28;5095347;28;20111;-60
2022/11/24 02:09:55;;;;;;;21.10;6.32;;;;;;;7.14;95.45;100279.25;5095068;28;20066;-60
2022/11/24 02:12:22;;;;;;;26.88;6.88;;;;;;;7.14;95.30;100271.34;5096170;28;20027;-60
2022/11/24 02:14:48;;;;;;;26.70;7.18;;;;;;;7.12;95.55;100281.16;5093951;28;20500;-60
2022/11/24 02:17:14;;;;;;;23.05;7.72;;;;;;;7.08;95.59;100276.13;5095015;28;20036;-60
2022/11/24 02:19:40;;;;;;;19.65;6.10;;;;;;;7.14;95.59;100286.34;5093998;28;20047;-61
2022/11/24 02:22:32;;;;;;;27.73;7.05;;;;;;;7.17;95.52;100283.53;5093613;28;20076;-60
2022/11/24 02:25:13;;;;;;;25.23;6.40;;;;;;;7.19;95.27;100292.25;5101102;28;20501;-60
2022/11/24 02:27:41;;;;;;;21.17;6.20;;;;;;;7.17;95.33;100289.66;5103820;28;20034;-61
2022/11/24 02:30:07;;;;;;;19.20;6.75;;;;;;;7.19;95.45;100282.50;5093647;28;20032;-60
2022/11/24 02:32:33;;;;;;;25.20;6.32;;;;;;;7.20;95.42;100288.63;5126330;27;20028;-60
2022/11/24 02:35:01;;;;;;;24.42;7.07;;;;;;;7.20;95.39;100291.28;5093643;28;20032;-60
2022/11/24 02:37:27;;;;;;;24.70;6.95;;;;;;;7.21;95.55;100293.84;5105380;28;20478;-60
2022/11/24 02:39:52;;;;;;;22.80;6.80;;;;;;;7.26;95.33;100293.56;5092202;28;20116;-60
2022/11/24 02:42:18;;;;;;;26.75;7.53;;;;;;;7.28;95.50;100299.63;5092413;28;20118;-61
2022/11/24 02:44:47;;;;;;;25.42;6.80;;;;;;;7.28;95.29;100297.00;5093513;28;20407;-60
2022/11/24 02:47:12;;;;;;;25.50;6.80;;;;;;;7.31;95.45;100288.88;5094567;28;20012;-60
2022/11/24 02:49:38;;;;;;;31.95;7.88;;;;;;;7.30;96.03;100300.41;5094793;28;20406;-60
2022/11/24 02:52:05;;;;;;;25.42;7.55;;;;;;;7.32;95.69;100303.78;5091937;28;20032;-60
2022/11/24 02:54:33;;;;;;;26.83;8.23;;;;;;;7.32;96.13;100308.22;5092338;28;20031;-60
2022/11/24 02:56:59;;;;;;;25.98;7.57;;;;;;;7.40;95.66;100314.78;5088367;28;20023;-60
2022/11/24 02:59:24;;;;;;;26.23;6.82;;;;;;;7.37;95.68;100307.03;5100712;28;20028;-60
2022/11/24 03:01:50;;;;;;;20.17;7.00;;;;;;;7.40;96.07;100311.28;5091614;28;20042;-60
2022/11/24 03:04:15;;;;;;;25.17;6.90;;;;;;;7.46;95.76;100313.56;5084815;28;20423;-60
2022/11/24 03:06:42;;;;;;;31.58;7.10;;;;;;;7.41;95.70;100302.41;5081625;28;20487;-60
2022/11/24 03:09:07;;;;;;;29.33;6.82;;;;;;;7.44;95.96;100311.03;5092126;28;20020;-60
2022/11/24 03:11:33;;;;;;;28.55;7.38;;;;;;;7.45;95.77;100318.03;5072402;28;20017;-60
2022/11/24 03:13:59;;;;;;;23.45;7.10;;;;;;;7.45;95.92;100318.03;5072017;28;20047;-60
2022/11/24 03:16:24;;;;;;;26.50;7.18;;;;;;;7.47;95.78;100320.56;5076624;28;20119;-60
2022/11/24 03:18:51;;;;;;;22.73;6.55;;;;;;;7.42;95.94;100315.56;5074445;28;20024;-60
2022/11/24 03:21:17;;;;;;;28.35;7.30;;;;;;;7.45;95.54;100315.38;5079632;28;20048;-60
2022/11/24 03:23:42;;;;;;;25.08;7.20;;;;;;;7.53;95.65;100327.28;5072261;28;20505;-60
2022/11/24 03:26:12;;;;;;;30.13;7.03;;;;;;;7.54;95.83;100335.16;5087918;28;20024;-60
2022/11/24 03:28:39;;;;;;;21.23;7.28;;;;;;;7.54;95.62;100321.91;5088401;28;20085;-60
2022/11/24 03:31:06;;;;;;;25.85;8.10;;;;;;;7.57;95.81;100332.31;5072537;28;20029;-60
2022/11/24 03:33:33;;;;;;;27.13;7.93;;;;;;;7.58;95.70;100328.72;5071953;28;20613;-60
2022/11/24 03:35:58;;;;;;;28.88;7.43;;;;;;;7.61;95.58;100335.63;5091070;28;20118;-60
2022/11/24 03:38:26;;;;;;;27.23;6.95;;;;;;;7.55;95.61;100325.41;5107104;28;20395;-60
2022/11/24 03:40:52;;;;;;;26.40;7.80;;;;;;;7.62;95.53;100329.41;5090742;28;20130;-61
2022/11/24 03:43:17;;;;;;;30.52;7.47;;;;;;;7.64;95.37;100328.34;5073338;28;20031;-60
2022/11/24 03:45:47;;;;;;;25.05;7.07;;;;;;;7.70;94.91;100328.00;5074604;28;20107;-60
2022/11/24 03:48:20;;;;;;;33.85;8.32;;;;;;;7.69;95.03;100330.75;5080261;28;20387;-61
2022/11/24 03:50:52;;;;;;;24.40;7.03;;;;;;;7.70;95.27;100335.94;5086899;28;20024;-60
2022/11/24 03:53:18;;;;;;;25.13;7.97;;;;;;;7.70;94.74;100328.00;5072135;28;20027;-60
2022/11/24 03:55:43;;;;;;;28.05;8.15;;;;;;;7.73;94.79;100327.84;5090442;28;20032;-61
2022/11/24 03:58:09;;;;;;;31.20;7.25;;;;;;;7.75;95.23;100335.66;5097575;28;20035;-61
2022/11/24 04:00:34;;;;;;;27.50;7.43;;;;;;;7.74;95.12;100340.13;5089296;28;20032;-60
2022/11/24 04:02:59;;;;;;;34.10;8.13;;;;;;;7.75;95.11;100333.03;5072771;28;20038;-60
2022/11/24 04:05:25;;;;;;;29.65;8.00;;;;;;;7.73;95.33;100333.13;5084491;28;20028;-60
2022/11/24 04:07:53;;;;;;;30.75;8.20;;;;;;;7.70;95.19;100327.16;5091114;28;20475;-61
2022/11/24 04:10:19;;;;;;;28.40;7.97;;;;;;;7.72;95.64;100347.28;5071510;28;20059;-60
2022/11/24 04:12:44;;;;;;;30.20;7.82;;;;;;;7.73;95.25;100354.31;5069839;28;20510;-60
2022/11/24 04:15:15;;;;;;;32.15;7.72;;;;;;;7.73;95.51;100354.31;5090326;28;20020;-60
2022/11/24 04:17:41;;;;;;;27.65;7.88;;;;;;;7.74;95.37;100355.16;5092858;28;20028;-61
2022/11/24 04:20:08;;;;;;;27.73;7.45;;;;;;;7.76;95.46;100370.94;5101290;28;20026;-60
2022/11/24 04:22:34;;;;;;;24.45;6.63;;;;;;;7.71;95.93;100368.56;5091894;28;20044;-60
2022/11/24 04:25:00;;;;;;;24.58;6.85;;;;;;;7.71;96.51;100377.34;5092102;28;20035;-60
2022/11/24 04:27:25;;;;;;;29.08;7.28;;;;;;;7.72;97.13;100387.00;5092462;28;20398;-60
2022/11/24 04:29:51;;;;;;;25.60;7.50;;;;;;;7.69;97.13;100389.81;5092571;28;20054;-61
2022/11/24 04:32:17;;;;;;;22.65;6.90;;;;;;;7.74;97.02;100392.22;5090679;28;20046;-60
2022/11/24 04:34:42;;;;;;;26.13;6.15;;;;;;;7.67;97.59;100397.00;5092027;28;20416;-60
2022/11/24 04:37:08;;;;;;;22.70;6.20;;;;;;;7.50;98.24;100374.19;5091798;28;20043;-60
2022/11/24 04:39:34;;;;;;;23.60;6.28;;;;;;;7.55;98.86;100391.56;5091822;28;20107;-60
2022/11/24 04:42:00;;;;;;;24.25;6.03;;;;;;;7.51;98.65;100393.53;5107688;28;20110;-60
2022/11/24 04:44:26;;;;;;;18.45;5.40;;;;;;;7.45;99.11;100399.19;5111476;28;20042;-60
2022/11/24 04:46:51;;;;;;;15.07;5.28;;;;;;;7.37;99.41;100396.13;5092647;28;20398;-60
2022/11/24 04:49:17;;;;;;;13.98;4.93;;;;;;;7.37;98.99;100409.34;5091725;28;20035;-60
2022/11/24 04:51:43;;;;;;;20.27;6.07;;;;;;;7.37;98.99;100410.19;5091626;28;20028;-60
2022/11/24 04:54:11;;;;;;;16.73;4.90;;;;;;;7.37;98.69;100406.72;5093313;28;20114;-60
2022/11/24 04:56:37;;;;;;;12.75;4.43;;;;;;;7.37;98.60;100412.00;5110176;28;20093;-60
2022/11/24 04:59:02;;;;;;;11.45;4.28;;;;;;;7.35;98.05;100409.41;5075472;28;20028;-60
2022/11/24 05:01:27;;;;;;;10.52;4.05;;;;;;;7.34;97.57;100407.72;5069899;28;20721;-60
2022/11/24 05:03:54;;;;;;;13.57;4.47;;;;;;;7.30;98.20;100405.38;5071309;28;20025;-60
2022/11/24 05:06:20;;;;;;;13.25;4.43;;;;;;;7.30;98.19;100406.22;5090413;28;20085;-60
2022/11/24 05:08:51;;;;;;;13.40;4.18;;;;;;;7.25;98.67;100411.75;5091186;28;20062;-60
2022/11/24 05:11:17;;;;;;;8.77;4.10;;;;;;;7.22;98.72;100416.38;5090697;28;20386;-61
2022/11/24 05:13:43;;;;;;;10.23;3.92;;;;;;;7.20;99.10;100410.28;5091119;28;20479;-60
2022/11/24 05:16:08;;;;;;;15.45;4.15;;;;;;;7.21;98.93;100417.31;5113038;28;20054;-60
2022/11/24 05:18:36;;;;;;;8.55;3.90;;;;;;;7.22;99.58;100421.66;5114497;28;20475;-60
2022/11/24 05:21:03;;;;;;;11.73;4.80;;;;;;;7.19;99.87;100422.66;5115162;28;20106;-60
2022/11/24 05:23:31;;;;;;;14.15;3.97;;;;;;;7.26;99.97;100426.69;5115387;28;20039;-60
2022/11/24 05:26:00;;;;;;;12.43;4.75;;;;;;;7.27;99.71;100430.19;5103889;28;20016;-60
2022/11/24 05:28:26;;;;;;;13.07;4.90;;;;;;;7.31;100.00;100431.72;5115506;28;20035;-60
2022/11/24 05:30:52;;;;;;;20.10;6.30;;;;;;;7.32;99.81;100435.19;5113939;28;20031;-60
2022/11/24 05:33:18;;;;;;;16.08;4.97;;;;;;;7.31;100.00;100437.00;5098409;28;20032;-61
2022/11/24 05:35:49;;;;;;;19.52;6.35;;;;;;;7.35;100.00;100440.31;5107035;28;20111;-61
2022/11/24 05:38:16;;;;;;;20.00;5.97;;;;;;;7.35;100.00;100437.69;5095724;28;20032;-60
2022/11/24 05:40:42;;;;;;;21.00;5.95;;;;;;;7.36;100.00;100442.06;5093874;28;20030;-60
2022/11/24 05:43:10;;;;;;;22.23;6.82;;;;;;;7.40;100.00;100447.06;5097017;28;20019;-60
2022/11/24 05:45:36;;;;;;;26.17;6.95;;;;;;;7.41;100.00;100451.44;5094748;28;20089;-60
2022/11/24 05:48:06;;;;;;;24.60;6.80;;;;;;;7.43;100.00;100459.28;5128502;27;20039;-60
2022/11/24 05:50:32;;;;;;;28.40;6.82;;;;;;;7.49;100.00;100456.28;5094116;28;20360;-60
2022/11/24 05:53:08;;;;;;;22.77;7.13;;;;;;;7.45;99.66;100452.09;5094340;28;20043;-60
2022/11/24 05:55:34;;;;;;;20.58;7.22;;;;;;;7.60;98.62;100469.75;5095052;28;20475;-60
2022/11/24 05:58:05;;;;;;;26.17;7.03;;;;;;;7.49;99.98;100472.16;5094141;28;20020;-60
2022/11/24 06:00:34;;;;;;;26.17;7.57;;;;;;;7.50;99.46;100477.38;5094135;28;20364;-61
2022/11/24 06:03:00;;;;;;;;;;;;;;;7.57;99.25;100480.53;5094609;28;20359;-60
2022/11/24 06:05:27;;;;;;;24.40;6.40;;;;;;;7.60;97.84;100488.28;5097561;28;20048;-60
2022/11/24 06:07:53;;;;;;;24.58;6.43;;;;;;;7.58;97.86;100495.44;5114293;28;20043;-61
2022/11/24 06:10:19;;;;;;;19.50;6.60;;;;;;;7.57;98.22;100503.50;5114538;28;20023;-60
2022/11/24 06:12:45;;;;;;;21.25;6.72;;;;;;;7.55;98.09;100508.00;5114076;27;20382;-60
2022/11/24 06:15:11;;;;;;;19.25;6.40;;;;;;;7.57;98.00;100517.56;5114410;28;20020;-60
2022/11/24 06:17:37;;;;;;;16.33;6.05;;;;;;;7.53;97.83;100505.47;5097180;28;20039;-60
2022/11/24 06:20:05;;;;;;;17.10;5.90;;;;;;;7.50;96.69;100506.47;5094123;28;20024;-60
2022/11/24 06:22:30;;;;;;;12.02;5.00;;;;;;;7.59;95.97;100513.06;5094094;28;20514;-60
2022/11/24 06:24:56;;;;;;;16.75;5.47;;;;;;;7.58;95.34;100523.72;5095902;28;20028;-60
2022/11/24 06:27:22;;;;;;;17.75;5.50;;;;;;;7.58;95.00;100532.50;5111579;28;20038;-60
2022/11/24 06:29:50;;;;;;;12.52;5.80;;;;;;;7.56;95.02;100544.97;5114345;28;20019;-60
2022/11/24 06:32:16;;;;;;;12.52;4.57;;;;;;;7.50;94.21;100535.59;5114205;28;20024;-60
2022/11/24 06:34:41;;;;;;;15.60;5.03;;;;;;;7.54;94.48;100552.13;5112856;28;20028;-60
2022/11/24 06:37:07;;;;;;;13.75;4.97;;;;;;;7.49;94.78;100543.59;5110493;28;20031;-60
2022/11/24 06:39:33;;;;;;;9.13;4.32;;;;;;;7.49;94.94;100557.66;5094759;28;20103;-60
2022/11/24 06:41:59;;;;;;;11.52;4.22;;;;;;;7.46;94.44;100560.50;5093207;28;20032;-60
2022/11/24 06:44:25;;;;;;;9.18;4.07;;;;;;;7.50;94.29;100567.34;5093607;28;20029;-60
2022/11/24 06:46:53;;;;;;;11.07;3.78;;;;;;;7.50;94.28;100570.00;5092914;28;20027;-60
2022/11/24 06:49:18;;;;;;;10.65;4.60;;;;;;;7.46;95.05;100573.72;5090066;28;20031;-60
2022/11/24 06:51:44;;;;;;;12.38;4.43;;;;;;;7.44;95.96;100580.91;5099571;28;20132;-60
2022/11/24 06:54:14;;;;;;;13.73;4.03;;;;;;;7.46;95.46;100589.59;5115357;27;20160;-60
2022/11/24 06:56:39;;;;;;;13.23;4.75;;;;;;;7.40;96.04;100589.94;5093740;28;20031;-60
2022/11/24 06:59:07;;;;;;;12.73;4.35;;;;;;;7.36;95.78;100596.34;5073966;28;20403;-60
2022/11/24 07:01:33;;;;;;;11.52;4.25;;;;;;;7.28;95.95;100590.59;5072876;28;20388;-60
2022/11/24 07:03:59;;;;;;;9.75;3.83;;;;;;;7.28;95.77;100606.47;5105240;28;20055;-60
2022/11/24 07:06:27;;;;;;;11.05;4.03;;;;;;;7.25;95.92;100607.47;5103397;28;20103;-60
2022/11/24 07:08:53;;;;;;;10.75;4.35;;;;;;;7.26;95.63;100624.19;5091868;28;20485;-60
2022/11/24 07:11:22;;;;;;;13.18;4.13;;;;;;;7.14;96.26;100622.22;5092391;28;20130;-60
2022/11/24 07:13:51;;;;;;;6.68;4.03;;;;;;;7.18;96.08;100629.91;5072858;28;20154;-60
2022/11/24 07:16:20;;;;;;;9.70;4.40;;;;;;;7.16;96.73;100637.06;5071574;28;20036;-60
2022/11/24 07:18:47;;;;;;;8.80;4.07;;;;;;;7.15;96.59;100647.75;5078532;28;20025;-60
2022/11/24 07:21:13;;;;;;;10.93;4.32;;;;;;;7.16;96.25;100650.28;5071012;28;20476;-60
2022/11/24 07:23:39;;;;;;;8.32;4.30;;;;;;;7.19;95.62;100650.13;5072649;28;20031;-60
2022/11/24 07:26:06;;;;;;;12.07;4.75;;;;;;;7.19;96.97;100654.56;5105932;28;20103;-60
2022/11/24 07:28:32;;;;;;;9.13;4.25;;;;;;;7.18;97.14;100663.44;5113110;28;20023;-60
2022/11/24 07:30:58;;;;;;;11.95;4.90;;;;;;;7.16;96.41;100660.88;5112815;28;20100;-60
2022/11/24 07:33:24;;;;;;;8.88;3.70;;;;;;;7.13;96.41;100668.09;5104672;28;20479;-60
2022/11/24 07:35:53;;;;;;;9.55;3.65;;;;;;;7.08;96.04;100670.97;5125109;27;20028;-60
2022/11/24 07:38:19;;;;;;;10.30;4.05;;;;;;;7.11;95.00;100673.47;5091636;28;20386;-60
2022/11/24 07:40:49;;;;;;;8.80;3.72;;;;;;;7.05;95.76;100674.63;5090832;28;20024;-60
2022/11/24 07:43:14;;;;;;;6.80;4.13;;;;;;;7.00;95.50;100670.50;5094439;28;20043;-60
2022/11/24 07:45:40;;;;;;;10.73;4.00;;;;;;;7.02;95.50;100687.16;5081375;28;20097;-60
2022/11/24 07:48:09;;;;;;;9.35;4.28;;;;;;;7.00;95.35;100689.00;5071753;28;20089;-60
2022/11/24 07:50:35;;;;;;;11.10;4.35;;;;;;;7.01;95.36;100693.38;5111767;27;20035;-60
2022/11/24 07:53:03;;;;;;;9.68;4.22;;;;;;;6.99;95.26;100701.38;5082453;28;20462;-60
2022/11/24 07:55:29;;;;;;;13.15;4.38;;;;;;;6.96;95.58;100708.63;5090766;28;20494;-60
2022/11/24 07:58:00;;;;;;;10.50;4.78;;;;;;;6.98;95.35;100702.34;5115471;27;20039;-60
2022/11/24 08:00:29;;;;;;;10.30;4.80;;;;;;;6.94;95.77;100711.38;5075209;28;20026;-60
2022/11/24 08:02:54;;;;;;;11.40;4.35;;;;;;;6.88;95.65;100698.41;5108933;28;20106;-60
2022/11/24 08:05:20;;;;;;;10.23;4.55;;;;;;;6.96;95.36;100716.56;5090238;28;20111;-60
2022/11/24 08:07:45;;;;;;;13.30;4.65;;;;;;;6.95;95.35;100726.28;5091312;28;20039;-60
2022/11/24 08:10:11;;;;;;;10.70;4.90;;;;;;;6.98;95.26;100739.34;5091561;28;20035;-60
2022/11/24 08:12:40;;;;;;;10.85;4.82;;;;;;;6.97;95.36;100726.19;5091103;28;20173;-60
2022/11/24 08:15:08;;;;;;;14.98;4.80;;;;;;;6.98;95.10;100730.56;5092554;28;20119;-60
2022/11/24 08:17:34;;;;;;;15.40;4.68;;;;;;;6.99;94.67;100732.25;5090975;28;20128;-60
2022/11/24 08:20:00;;;;;;;13.82;5.30;;;;;;;7.01;94.81;100738.34;5091749;28;20066;-60
2022/11/24 08:22:29;;;;;;;14.98;5.07;;;;;;;7.04;94.71;100751.41;5091779;28;20065;-60
2022/11/24 08:24:54;;;;;;;11.50;4.45;;;;;;;7.08;94.38;100757.41;5070465;28;20575;-60
2022/11/24 08:27:20;;;;;;;15.25;4.90;;;;;;;7.09;94.41;100757.34;5080203;28;20138;-60
2022/11/24 08:29:45;;;;;;;12.73;4.80;;;;;;;7.04;94.52;100748.75;5090672;28;20073;-60
2022/11/24 08:32:11;;;;;;;13.63;4.80;;;;;;;7.05;94.70;100751.31;5091373;28;20016;-60
2022/11/24 08:34:37;;;;;;;12.75;4.60;;;;;;;7.08;94.79;100760.88;5092850;28;20098;-60
2022/11/24 08:37:06;;;;;;;12.65;4.95;;;;;;;7.13;94.52;100765.97;5091579;28;20028;-60
2022/11/24 08:39:32;;;;;;;15.07;5.13;;;;;;;7.16;94.12;100766.66;5091990;28;20479;-60
2022/11/24 08:41:58;;;;;;;11.25;5.03;;;;;;;7.19;94.09;100779.72;5091592;28;20107;-60
2022/11/24 08:44:23;;;;;;;13.80;5.63;;;;;;;7.19;94.42;100785.00;5110045;28;20478;-61
2022/11/24 08:46:49;;;;;;;13.95;5.25;;;;;;;7.21;94.06;100790.25;5144966;27;20039;-60
2022/11/24 08:49:15;;;;;;;14.85;5.90;;;;;;;7.25;94.82;100797.09;5113764;28;20047;-60
2022/11/24 08:51:42;;;;;;;14.00;5.15;;;;;;;7.26;94.10;100783.78;5116046;28;20059;-60
2022/11/24 08:54:12;;;;;;;12.18;5.00;;;;;;;7.34;94.06;100801.06;5114242;28;20020;-60
2022/11/24 08:56:38;;;;;;;16.85;5.15;;;;;;;7.36;93.67;100812.44;5115227;28;20088;-60
2022/11/24 08:59:03;;;;;;;14.75;4.90;;;;;;;7.41;93.70;100805.97;5114671;28;20031;-60
2022/11/24 09:01:30;;;;;;;15.10;5.35;;;;;;;7.43;93.70;100808.53;5114409;28;20629;-60
2022/11/24 09:03:56;;;;;;;12.40;5.38;;;;;;;7.49;93.08;100816.16;5099862;28;20031;-60
2022/11/24 09:06:25;;;;;;;15.80;5.35;;;;;;;7.54;93.50;100823.88;5102081;28;20046;-60
2022/11/24 09:08:52;;;;;;;15.48;6.05;;;;;;;7.54;93.26;100823.88;5115581;28;20554;-60
2022/11/24 09:11:19;;;;;;;18.85;5.18;;;;;;;7.61;93.45;100827.91;5114995;28;20388;-61
2022/11/24 09:13:45;;;;;;;19.67;5.47;;;;;;;7.62;92.66;100819.91;5115691;28;20027;-60
2022/11/24 09:16:14;;;;;;;15.77;5.10;;;;;;;7.67;92.63;100828.44;5108424;28;20459;-61
2022/11/24 09:18:39;;;;;;;13.70;5.75;;;;;;;7.77;91.65;100835.94;5095339;28;20119;-60
2022/11/24 09:21:13;;;;;;;13.63;5.50;;;;;;;7.75;92.42;100822.75;5094896;28;20063;-60
2022/11/24 09:23:40;;;;;;;15.07;5.65;;;;;;;7.83;92.41;100839.09;5095083;28;20067;-60
2022/11/24 09:26:09;;;;;;;13.43;5.68;;;;;;;7.89;92.54;100838.78;5093439;28;20028;-61
2022/11/24 09:28:35;;;;;;;17.38;5.63;;;;;;;7.97;91.50;100851.59;5095301;28;20028;-60
2022/11/24 09:31:02;;;;;;;13.38;5.55;;;;;;;8.02;91.53;100851.38;5076670;28;20081;-61
2022/11/24 09:33:28;;;;;;;15.68;5.75;;;;;;;8.10;91.38;100862.44;5096235;28;20070;-61
2022/11/24 09:35:53;;;;;;;28.50;6.88;;;;;;;8.16;90.53;100851.50;5093556;28;20032;-61
2022/11/24 09:38:19;;;;;;;20.77;5.85;;;;;;;8.18;90.52;100854.94;5094783;28;20070;-60
2022/11/24 09:40:44;;;;;;;15.85;5.82;;;;;;;8.30;90.97;100851.63;5093087;28;20035;-60
2022/11/24 09:43:28;;;;;;;15.20;6.05;;;;;;;8.32;90.01;100848.91;5109072;28;20401;-61
2022/11/24 09:46:04;;;;;;;12.57;5.43;;;;;;;8.41;90.10;100854.59;5114807;28;20031;-61
2022/11/24 09:48:37;;;;;;;17.33;5.97;;;;;;;8.53;89.27;100853.09;5114861;28;20112;-61
2022/11/24 09:51:04;;;;;;;19.75;6.10;;;;;;;8.75;88.68;100873.13;5114507;28;20030;-60
2022/11/24 09:53:55;;;;;;;15.52;5.70;;;;;;;8.87;88.41;100886.53;5100405;28;20020;-60
2022/11/24 09:56:29;;;;;;;16.25;5.95;;;;;;;9.02;86.46;100889.28;5092299;28;20028;-60
2022/11/24 09:59:13;;;;;;;17.02;6.68;;;;;;;9.15;86.58;100878.81;5094352;28;20383;-60
2022/11/24 10:01:44;;;;;;;22.55;6.07;;;;;;;9.36;86.01;100888.25;5095811;28;20050;-60
2022/11/24 10:04:18;;;;;;;16.15;5.85;;;;;;;9.54;84.48;100888.97;5113381;28;20035;-60
2022/11/24 10:06:59;;;;;;;13.18;5.22;;;;;;;9.44;83.73;100875.38;5106288;28;20039;-60
2022/11/24 10:09:55;;;;;;;15.07;4.97;;;;;;;9.69;83.74;100908.47;5092709;28;20020;-60
2022/11/24 10:12:57;;;;;;;15.45;4.97;;;;;;;9.86;83.60;100910.16;5094954;28;20394;-60
2022/11/24 10:15:28;;;;;;;17.92;5.63;;;;;;;10.08;82.23;100915.03;5092908;28;20028;-60
2022/11/24 10:18:05;;;;;;;17.73;5.88;;;;;;;10.33;81.09;100909.13;5092647;28;20024;-60
2022/11/24 10:20:39;;;;;;;15.40;5.00;;;;;;;10.52;79.79;100917.66;5094012;28;20012;-60
2022/11/24 10:23:28;;;;;;;13.32;4.90;;;;;;;10.81;79.36;100918.50;5111729;28;20510;-60
2022/11/24 10:25:59;;;;;;;12.07;4.13;;;;;;;10.87;76.75;100923.44;5094702;28;20049;-61
2022/11/24 10:28:38;;;;;;;15.15;5.13;;;;;;;11.14;77.20;100917.31;5092316;28;20339;-60
2022/11/24 10:31:22;;;;;;;15.85;4.30;;;;;;;11.46;75.96;100939.19;5093597;28;20024;-60
2022/11/24 10:33:48;;;;;;;10.18;4.05;;;;;;;11.68;73.62;100935.97;5112720;28;20114;-61
2022/11/24 10:36:25;;;;;;;13.15;4.40;;;;;;;11.97;72.73;100942.06;5112707;28;20493;-60
2022/11/24 10:38:58;;;;;;;11.23;3.92;;;;;;;12.41;72.27;100935.50;5112691;28;20069;-60
2022/11/24 10:41:40;;;;;;;18.30;4.35;;;;;;;12.69;70.71;100945.09;5111685;28;20518;-60
2022/11/24 10:44:11;;;;;;;14.38;3.90;;;;;;;13.00;69.34;100940.25;5114138;28;20031;-60
2022/11/24 10:46:37;;;;;;;16.70;4.50;;;;;;;13.08;66.83;100945.03;5112762;28;20088;-60
2022/11/24 10:49:04;;;;;;;15.38;4.43;;;;;;;13.18;66.53;100949.59;5146743;27;20478;-60
2022/11/24 10:51:46;;;;;;;16.35;4.10;;;;;;;13.39;68.40;100936.53;5145352;27;20012;-60
2022/11/24 10:54:18;;;;;;;12.00;3.97;;;;;;;13.36;66.38;100949.25;5112321;28;20031;-61
2022/11/24 10:56:46;;;;;;;10.95;4.10;;;;;;;13.49;64.85;100939.38;5101887;28;20020;-60
2022/11/24 10:59:23;;;;;;;18.92;4.25;;;;;;;13.74;65.05;100941.06;5092998;28;20074;-61
2022/11/24 11:01:50;;;;;;;19.17;3.97;;;;;;;13.89;63.89;100939.06;5104208;28;20035;-61
2022/11/24 11:04:20;;;;;;;15.52;4.43;;;;;;;14.08;63.30;100941.19;5111976;28;20148;-60
2022/11/24 11:06:48;;;;;;;10.90;3.83;;;;;;;14.18;62.77;100941.34;5111949;28;20474;-61
2022/11/24 11:09:21;;;;;;;10.20;3.43;;;;;;;14.32;63.24;100938.44;5113346;28;20051;-60
2022/11/24 11:11:48;;;;;;;12.57;3.38;;;;;;;14.41;61.85;100939.56;5109392;28;20062;-60
2022/11/24 11:14:32;;;;;;;15.43;4.15;;;;;;;14.83;63.96;100947.91;5113120;28;20031;-60
2022/11/24 11:16:58;;;;;;;12.25;4.10;;;;;;;14.73;59.76;100945.09;5111858;28;20027;-60
2022/11/24 11:19:24;;;;;;;16.42;3.70;;;;;;;14.76;60.64;100940.38;5113222;28;20051;-60
2022/11/24 11:22:00;;;;;;;11.10;3.75;;;;;;;14.67;61.03;100930.38;5111286;28;20100;-60
2022/11/24 11:24:27;;;;;;;16.05;3.83;;;;;;;14.82;60.75;100930.13;5113073;28;20436;-61
2022/11/24 11:27:19;;;;;;;14.82;3.97;;;;;;;15.24;60.44;100938.38;5112481;28;20043;-60
2022/11/24 11:29:48;;;;;;;13.70;4.38;;;;;;;14.96;59.20;100945.94;5106595;27;20036;-60